Time;durP1;ratioP1;P1;durP2;ratioP2;P2;SDS_P1;SDS_P2;PMS_P1;PMS_P2;Temp;Humidity;BMP_temperature;BMP_pressure;BME280_temperature;BME280_humidity;BME280_pressure;Samples;Min_cycle;Max_cycle;Signal;HPM_P1;HPM_P2
2021/06/03 00:01:26;;;;;;;7.10;3.67;;;;;;;14.68;53.87;100028.42;1683419;85;21025;-69
2021/06/03 00:03:54;;;;;;;5.92;3.65;;;;;;;14.63;53.93;100027.06;1688009;84;20985;-69
2021/06/03 00:06:20;;;;;;;5.15;3.02;;;;;;;14.60;54.05;100033.02;1665959;84;22068;-68
2021/06/03 00:08:49;;;;;;;4.17;3.08;;;;;;;14.58;53.97;100032.47;1666974;84;21008;-70
2021/06/03 00:11:16;;;;;;;4.17;2.95;;;;;;;14.56;54.15;100037.35;1690945;84;21052;-68
2021/06/03 00:13:44;;;;;;;4.37;3.10;;;;;;;14.51;54.30;100035.98;1687251;84;21057;-67
2021/06/03 00:16:13;;;;;;;7.03;2.90;;;;;;;14.49;54.28;100034.61;1683155;85;21021;-67
2021/06/03 00:18:40;;;;;;;4.67;2.92;;;;;;;14.47;54.19;100020.55;1687284;84;21119;-68
2021/06/03 00:21:08;;;;;;;4.33;3.00;;;;;;;14.47;54.12;100026.78;1692590;84;21009;-68
2021/06/03 00:23:36;;;;;;;3.08;2.85;;;;;;;14.47;54.11;100025.42;1693346;84;21770;-67
2021/06/03 00:26:03;;;;;;;3.77;2.52;;;;;;;14.48;54.06;100022.18;1672144;84;21063;-69
2021/06/03 00:28:31;;;;;;;4.47;2.50;;;;;;;14.47;54.04;100021.36;1696651;84;21003;-68
2021/06/03 00:30:58;;;;;;;7.55;2.92;;;;;;;14.45;54.01;100030.81;1672628;84;21165;-69
2021/06/03 00:33:24;;;;;;;4.50;3.20;;;;;;;14.40;54.12;100030.27;1696819;84;21529;-70
2021/06/03 00:35:52;;;;;;;3.45;2.37;;;;;;;14.38;54.13;100027.03;1696790;84;20991;-69
2021/06/03 00:38:19;;;;;;;4.85;2.92;;;;;;;14.34;54.29;100035.34;1696905;84;21038;-68
2021/06/03 00:40:47;;;;;;;4.25;2.83;;;;;;;14.34;54.14;100031.28;1697413;84;21074;-68
2021/06/03 00:43:13;;;;;;;7.00;3.30;;;;;;;14.35;54.24;100037.80;1674257;84;21243;-69
2021/06/03 00:45:42;;;;;;;3.42;2.75;;;;;;;14.30;54.36;100030.20;1697998;84;20963;-70
2021/06/03 00:48:08;;;;;;;3.42;2.98;;;;;;;14.29;54.20;100032.66;1697558;84;20982;-67
2021/06/03 00:50:44;;;;;;;2.95;2.47;;;;;;;14.30;54.26;100034.26;1696942;84;20991;-68
2021/06/03 00:53:12;;;;;;;7.35;3.55;;;;;;;14.29;54.13;100030.73;1696988;84;21074;-67
2021/06/03 00:55:42;;;;;;;2.85;2.55;;;;;;;14.25;54.21;100039.11;1682696;83;21056;-68
2021/06/03 00:58:12;;;;;;;5.78;2.83;;;;;;;14.26;54.33;100033.98;1701010;83;21132;-73
2021/06/03 01:00:38;;;;;;;3.10;2.80;;;;;;;14.21;54.23;100036.67;1693929;84;21590;-68
2021/06/03 01:03:06;;;;;;;5.72;3.05;;;;;;;14.16;54.52;100036.65;1668356;84;21581;-68
2021/06/03 01:05:45;;;;;;;5.72;2.70;;;;;;;14.16;54.42;100036.65;1697103;84;21018;-68
2021/06/03 01:08:16;;;;;;;5.33;2.90;;;;;;;14.13;54.63;100034.48;1696881;84;20987;-68
2021/06/03 01:11:14;;;;;;;5.70;2.95;;;;;;;14.10;54.64;100035.56;1697044;84;21016;-68
2021/06/03 01:14:21;;;;;;;3.92;2.50;;;;;;;14.08;54.63;100033.11;1696894;84;21014;-69
2021/06/03 01:16:49;;;;;;;4.62;2.60;;;;;;;14.08;54.72;100037.70;1696631;84;21570;-68
2021/06/03 01:19:29;;;;;;;4.72;2.33;;;;;;;14.02;54.96;100035.51;1681381;84;20943;-69
2021/06/03 01:22:13;;;;;;;4.78;3.10;;;;;;;13.93;55.26;100041.97;1670715;84;21552;-71
2021/06/03 01:24:46;;;;;;;9.48;3.75;;;;;;;13.85;55.45;100033.02;1670792;84;21599;-69
2021/06/03 01:27:20;;;;;;;4.08;2.77;;;;;;;13.82;55.55;100036.22;1649662;85;21575;-68
2021/06/03 01:30:09;;;;;;;3.35;3.05;;;;;;;13.81;55.43;100048.10;1641159;85;21014;-68
2021/06/03 01:32:42;;;;;;;3.10;2.80;;;;;;;13.71;55.84;100037.80;1641996;85;21101;-69
2021/06/03 01:35:16;;;;;;;3.90;3.20;;;;;;;13.69;55.78;100035.88;1643932;85;21080;-68
2021/06/03 01:37:43;;;;;;;8.55;2.72;;;;;;;13.70;55.77;100042.38;1653728;85;21018;-68
2021/06/03 01:40:11;;;;;;;6.30;2.95;;;;;;;13.70;55.67;100032.92;1653671;85;20948;-68
2021/06/03 01:42:38;;;;;;;6.28;3.02;;;;;;;13.71;55.60;100041.31;1654069;85;21027;-67
2021/06/03 01:45:07;;;;;;;4.80;2.65;;;;;;;13.71;55.66;100042.67;1676628;85;21468;-69
2021/06/03 01:47:35;;;;;;;7.90;4.70;;;;;;;13.66;55.80;100039.94;1653852;85;21064;-69
2021/06/03 01:50:05;;;;;;;7.47;3.40;;;;;;;13.64;55.83;100039.91;1681166;85;20944;-70
2021/06/03 01:52:32;;;;;;;8.08;3.50;;;;;;;13.63;55.91;100046.38;1681122;85;21029;-68
2021/06/03 01:55:01;;;;;;;6.17;2.52;;;;;;;13.64;55.78;100042.07;1680886;85;20947;-69
2021/06/03 01:57:27;;;;;;;7.83;3.37;;;;;;;13.62;55.69;100041.50;1641581;85;21039;-71
2021/06/03 01:59:55;;;;;;;6.50;3.42;;;;;;;13.64;55.71;100041.25;1667397;85;21251;-68
2021/06/03 02:02:21;;;;;;;7.80;3.52;;;;;;;13.62;55.64;100037.45;1670940;84;21106;-69
2021/06/03 02:04:48;;;;;;;5.72;2.75;;;;;;;13.58;55.83;100038.23;1649603;85;20991;-71
2021/06/03 02:07:15;;;;;;;4.50;3.15;;;;;;;13.58;55.79;100033.64;1681133;85;21524;-69
2021/06/03 02:09:42;;;;;;;7.25;3.30;;;;;;;13.54;55.83;100042.82;1680904;85;21019;-70
2021/06/03 02:12:12;;;;;;;7.08;4.22;;;;;;;13.54;55.91;100041.47;1671049;85;20983;-68
2021/06/03 02:14:40;;;;;;;3.92;3.20;;;;;;;13.52;55.88;100038.77;1670822;85;21075;-77
2021/06/03 02:17:20;;;;;;;4.22;2.72;;;;;;;13.52;55.96;100050.92;1670562;84;21396;-68
2021/06/03 02:20:15;;;;;;;4.08;3.00;;;;;;;13.49;56.19;100045.48;1669595;83;21040;-74
2021/06/03 02:22:44;;;;;;;5.00;3.62;;;;;;;13.44;56.17;100042.75;1658071;85;21599;-69
2021/06/03 02:25:11;;;;;;;8.78;3.10;;;;;;;13.47;56.05;100041.44;1653683;85;21094;-68
2021/06/03 02:27:40;;;;;;;6.25;2.72;;;;;;;13.47;56.17;100050.89;1681128;85;20940;-69
2021/06/03 02:30:09;;;;;;;2.37;2.17;;;;;;;13.47;56.18;100052.24;1680452;85;21031;-68
2021/06/03 02:32:36;;;;;;;3.67;2.72;;;;;;;13.47;56.29;100047.66;1641709;85;21035;-71
2021/06/03 02:35:09;;;;;;;3.45;3.08;;;;;;;13.45;56.47;100057.89;1629777;85;21549;-71
2021/06/03 02:37:38;;;;;;;3.42;3.00;;;;;;;13.44;56.53;100057.61;1653989;85;21924;-68
2021/06/03 02:40:13;;;;;;;6.10;2.83;;;;;;;13.43;56.63;100053.80;1653440;85;21011;-69
2021/06/03 02:42:43;;;;;;;3.70;3.40;;;;;;;13.40;56.77;100066.50;1655456;85;22127;-69
2021/06/03 02:45:13;;;;;;;3.90;3.08;;;;;;;13.40;56.90;100059.73;1682584;85;20991;-70
2021/06/03 02:47:41;;;;;;;7.20;2.83;;;;;;;13.38;56.96;100062.69;1655386;85;21568;-69
2021/06/03 02:50:10;;;;;;;3.60;2.87;;;;;;;13.38;56.95;100064.61;1673819;85;21071;-70
2021/06/03 02:52:38;;;;;;;10.68;4.05;;;;;;;13.36;57.10;100066.73;1670612;85;21007;-70
2021/06/03 02:55:10;;;;;;;5.22;3.10;;;;;;;13.37;57.04;100067.02;1680948;85;21027;-69
2021/06/03 02:57:37;;;;;;;7.97;2.90;;;;;;;13.37;57.03;100063.78;1653832;85;21596;-68
2021/06/03 03:00:12;;;;;;;6.17;3.12;;;;;;;13.41;57.10;100072.19;1680583;85;21059;-68
2021/06/03 03:02:38;;;;;;;3.40;2.95;;;;;;;13.42;56.97;100074.64;1681420;85;21731;-72
2021/06/03 03:05:08;;;;;;;5.10;2.80;;;;;;;13.43;57.05;100076.77;1651148;85;21409;-69
2021/06/03 03:07:35;;;;;;;4.12;3.15;;;;;;;13.47;57.00;100073.86;1670950;85;21080;-69
2021/06/03 03:10:05;;;;;;;5.60;2.98;;;;;;;13.48;57.06;100072.76;1670380;84;21595;-70
2021/06/03 03:12:33;;;;;;;4.87;3.37;;;;;;;13.50;56.91;100074.68;1653468;85;21560;-71
2021/06/03 03:15:00;;;;;;;4.97;4.03;;;;;;;13.51;56.84;100079.83;1653508;85;21251;-70
2021/06/03 03:17:27;;;;;;;10.35;3.87;;;;;;;13.51;56.71;100072.27;1671736;85;21031;-70
2021/06/03 03:19:55;;;;;;;9.95;3.37;;;;;;;13.54;56.95;100075.25;1675147;84;21093;-68
2021/06/03 03:22:22;;;;;;;8.05;3.10;;;;;;;13.58;56.80;100079.59;1661278;85;21050;-68
2021/06/03 03:24:49;;;;;;;5.35;2.60;;;;;;;13.57;56.72;100073.93;1686245;85;21086;-69
2021/06/03 03:27:17;;;;;;;7.25;3.47;;;;;;;13.60;56.95;100064.48;1686454;85;21189;-69
2021/06/03 03:29:44;;;;;;;7.25;3.02;;;;;;;13.62;57.03;100068.53;1686279;85;20974;-68
2021/06/03 03:32:10;;;;;;;4.50;2.70;;;;;;;13.64;56.85;100069.63;1654882;85;21150;-69
2021/06/03 03:34:37;;;;;;;4.10;2.87;;;;;;;13.67;56.81;100070.48;1685791;85;21023;-68
2021/06/03 03:37:03;;;;;;;3.95;3.10;;;;;;;13.71;56.78;100072.41;1675842;85;21031;-71
2021/06/03 03:39:32;;;;;;;3.98;2.80;;;;;;;13.73;56.88;100076.99;1679722;85;21123;-72
2021/06/03 03:41:58;;;;;;;5.95;2.92;;;;;;;13.74;57.00;100067.81;1678978;85;20964;-68
2021/06/03 03:44:26;;;;;;;3.80;2.58;;;;;;;13.79;56.78;100083.25;1687262;84;21026;-69
2021/06/03 03:46:54;;;;;;;4.42;2.90;;;;;;;13.81;56.80;100069.73;1686208;85;20955;-70
2021/06/03 03:49:22;;;;;;;3.30;2.87;;;;;;;13.87;56.81;100078.69;1658681;85;21094;-69
2021/06/03 03:51:50;;;;;;;4.40;3.20;;;;;;;13.90;56.53;100080.36;1681622;85;21263;-69
2021/06/03 03:54:18;;;;;;;6.10;4.78;;;;;;;13.94;56.66;100076.58;1662519;85;20987;-70
2021/06/03 03:56:46;;;;;;;8.03;3.20;;;;;;;13.97;56.44;100069.28;1686245;85;20939;-69
2021/06/03 03:59:12;;;;;;;2.95;2.65;;;;;;;14.02;56.25;100073.91;1686258;85;21086;-70
2021/06/03 04:01:39;;;;;;;3.80;3.08;;;;;;;14.06;56.42;100077.17;1685336;85;21537;-69
2021/06/03 04:04:07;;;;;;;3.95;3.02;;;;;;;14.10;56.31;100076.13;1686360;85;20928;-69
2021/06/03 04:06:38;;;;;;;11.30;3.75;;;;;;;14.13;56.23;100085.88;1686391;83;21532;-71
2021/06/03 04:09:05;;;;;;;6.55;4.20;;;;;;;14.15;56.01;100086.41;1709532;83;21020;-69
2021/06/03 04:11:34;;;;;;;4.28;2.70;;;;;;;14.20;56.11;100090.49;1679628;85;21579;-68
2021/06/03 04:14:01;;;;;;;7.00;3.10;;;;;;;14.23;55.86;100092.69;1690393;84;21124;-72
2021/06/03 04:16:28;;;;;;;8.20;3.65;;;;;;;14.27;55.95;100091.62;1670581;84;21249;-68
2021/06/03 04:18:56;;;;;;;5.78;2.90;;;;;;;14.32;55.69;100092.99;1664967;83;21065;-67
2021/06/03 04:21:23;;;;;;;3.12;2.83;;;;;;;14.34;55.54;100094.87;1675977;84;21071;-69
2021/06/03 04:23:51;;;;;;;3.30;2.75;;;;;;;14.34;55.40;100090.28;1681132;85;21529;-70
2021/06/03 04:26:18;;;;;;;2.85;2.52;;;;;;;14.37;55.30;100097.92;1681263;85;21524;-69
2021/06/03 04:28:44;;;;;;;3.15;2.75;;;;;;;14.42;55.59;100090.90;1653578;85;21142;-67
2021/06/03 04:31:10;;;;;;;2.45;2.25;;;;;;;14.44;55.34;100094.95;1676480;85;21063;-68
2021/06/03 04:33:37;;;;;;;4.47;2.33;;;;;;;14.47;55.30;100090.38;1670509;84;20975;-68
2021/06/03 04:36:04;;;;;;;4.65;2.87;;;;;;;14.48;54.95;100094.72;1670817;85;21540;-68
2021/06/03 04:38:31;;;;;;;4.33;3.25;;;;;;;14.51;55.23;100102.30;1670900;85;21115;-69
2021/06/03 04:40:58;;;;;;;3.17;2.90;;;;;;;14.55;55.56;100103.39;1670652;84;22039;-69
2021/06/03 04:43:24;;;;;;;3.95;2.77;;;;;;;14.57;55.32;100093.12;1641747;85;21023;-68
2021/06/03 04:45:51;;;;;;;5.03;2.52;;;;;;;14.59;55.26;100100.95;1670586;85;21081;-69
2021/06/03 04:48:17;;;;;;;5.62;2.50;;;;;;;14.61;55.08;100100.98;1670915;85;21006;-68
2021/06/03 04:50:44;;;;;;;5.10;2.87;;;;;;;14.66;55.17;100097.47;1678117;85;21575;-69
2021/06/03 04:53:11;;;;;;;6.08;3.58;;;;;;;14.71;54.92;100097.48;1670742;85;21138;-69
2021/06/03 04:55:38;;;;;;;6.28;3.00;;;;;;;14.73;54.64;100102.89;1670494;85;21083;-68
2021/06/03 04:58:07;;;;;;;2.37;2.17;;;;;;;14.78;54.74;100102.09;1670706;85;21627;-66
2021/06/03 05:00:36;;;;;;;4.28;3.15;;;;;;;14.79;54.64;100103.19;1673443;85;20955;-69
2021/06/03 05:03:04;;;;;;;7.15;3.12;;;;;;;14.84;55.05;100107.80;1680934;85;20988;-68
2021/06/03 05:05:31;;;;;;;3.27;2.50;;;;;;;14.89;54.78;100105.64;1641683;85;21053;-67
2021/06/03 05:07:57;;;;;;;9.40;4.10;;;;;;;14.95;54.46;100103.23;1671388;84;21085;-71
2021/06/03 05:10:25;;;;;;;5.25;3.20;;;;;;;14.99;54.43;100099.71;1680232;85;21012;-69
2021/06/03 05:12:52;;;;;;;3.25;2.95;;;;;;;15.05;54.51;100103.25;1643079;85;21118;-76
2021/06/03 05:15:20;;;;;;;5.10;2.60;;;;;;;15.11;53.97;100097.55;1672243;85;21537;-68
2021/06/03 05:17:49;;;;;;;4.10;2.27;;;;;;;15.16;53.70;100101.62;1641748;85;21175;-67
2021/06/03 05:20:16;;;;;;;5.75;3.67;;;;;;;15.21;53.21;100107.04;1673029;84;21336;-68
2021/06/03 05:22:44;;;;;;;4.10;2.40;;;;;;;15.27;53.02;100101.91;1681184;85;21098;-69
2021/06/03 05:25:15;;;;;;;6.42;3.00;;;;;;;15.34;53.23;100094.05;1654101;85;21615;-67
2021/06/03 05:27:43;;;;;;;6.15;2.58;;;;;;;15.42;53.12;100107.05;1681401;85;21023;-68
2021/06/03 05:30:12;;;;;;;7.90;2.80;;;;;;;15.49;52.78;100106.25;1651528;85;21078;-68
2021/06/03 05:32:38;;;;;;;6.08;2.65;;;;;;;15.55;52.51;100105.17;1641483;85;21051;-68
2021/06/03 05:35:07;;;;;;;5.42;2.37;;;;;;;15.62;52.13;100107.90;1670390;85;21081;-68
2021/06/03 05:37:34;;;;;;;3.20;2.30;;;;;;;15.70;51.77;100110.59;1670743;85;21079;-68
2021/06/03 05:40:00;;;;;;;5.10;2.98;;;;;;;15.78;51.54;100115.45;1677632;84;21099;-70
2021/06/03 05:42:26;;;;;;;5.33;2.60;;;;;;;15.85;50.87;100107.86;1670583;85;21253;-67
2021/06/03 05:44:53;;;;;;;3.47;2.85;;;;;;;15.94;51.39;100121.67;1670669;84;21011;-67
2021/06/03 05:47:20;;;;;;;4.87;2.47;;;;;;;16.02;50.67;100131.41;1670780;85;21227;-67
2021/06/03 05:49:47;;;;;;;9.83;3.37;;;;;;;16.11;50.71;100123.55;1641897;85;21095;-68
2021/06/03 05:52:13;;;;;;;8.75;2.62;;;;;;;16.19;50.54;100127.05;1653769;85;21067;-68
2021/06/03 05:54:42;;;;;;;3.25;2.70;;;;;;;16.26;50.49;100132.98;1681171;85;21002;-67
2021/06/03 05:57:08;;;;;;;7.42;2.80;;;;;;;16.32;50.80;100119.67;1681147;85;21039;-67
2021/06/03 05:59:37;;;;;;;3.92;2.72;;;;;;;16.40;50.72;100138.66;1645913;86;20983;-68
2021/06/03 06:02:06;;;;;;;5.60;3.25;;;;;;;16.47;50.60;100131.02;1697014;83;21018;-67
2021/06/03 06:07:18;;;;;;;4.67;2.95;;;;;;;16.54;49.09;100133.72;1682592;85;21956;-68
2021/06/03 06:09:46;;;;;;;4.92;2.70;;;;;;;16.59;49.08;100135.63;1682683;85;21028;-72
2021/06/03 06:12:13;;;;;;;3.62;1.92;;;;;;;16.61;48.83;100128.00;1680851;85;21539;-68
2021/06/03 06:14:41;;;;;;;3.92;2.50;;;;;;;16.65;49.08;100134.49;1678785;85;20963;-68
2021/06/03 06:17:10;;;;;;;8.35;2.30;;;;;;;16.71;49.34;100135.28;1641631;85;21536;-69
2021/06/03 06:19:38;;;;;;;6.12;2.17;;;;;;;16.76;48.98;100127.92;1670613;84;21136;-69
2021/06/03 06:22:04;;;;;;;8.18;2.80;;;;;;;16.84;47.83;100121.08;1652140;85;21531;-68
2021/06/03 06:24:31;;;;;;;4.50;2.35;;;;;;;16.89;48.18;100128.66;1681079;85;20912;-69
2021/06/03 06:27:01;;;;;;;10.95;2.87;;;;;;;16.95;48.62;100122.66;1681043;85;21023;-67
2021/06/03 06:29:28;;;;;;;3.25;2.70;;;;;;;16.99;48.40;100127.78;1681095;85;21074;-68
2021/06/03 06:31:55;;;;;;;9.30;2.65;;;;;;;17.05;48.42;100114.44;1672541;85;21265;-69
2021/06/03 06:34:21;;;;;;;6.03;4.55;;;;;;;17.11;48.30;100133.70;1670792;84;21577;-70
2021/06/03 06:36:47;;;;;;;10.45;2.52;;;;;;;17.16;47.91;100128.23;1642335;85;21122;-69
2021/06/03 06:39:17;;;;;;;6.00;2.87;;;;;;;17.24;47.04;100120.02;1677759;84;21090;-67
2021/06/03 06:41:43;;;;;;;3.83;2.60;;;;;;;17.31;47.19;100125.96;1681259;85;21075;-68
2021/06/03 06:44:10;;;;;;;8.58;3.35;;;;;;;17.39;46.59;100114.47;1653858;85;22327;-68
2021/06/03 06:46:36;;;;;;;8.53;2.72;;;;;;;17.47;46.57;100120.64;1681012;85;20956;-69
2021/06/03 06:49:03;;;;;;;11.08;2.92;;;;;;;17.58;46.31;100115.94;1675157;85;21063;-69
2021/06/03 06:51:30;;;;;;;4.22;3.10;;;;;;;17.62;45.39;100116.47;1670558;84;21067;-69
2021/06/03 06:53:57;;;;;;;10.05;2.42;;;;;;;17.68;45.82;100129.48;1670420;84;21080;-70
2021/06/03 06:56:24;;;;;;;5.80;2.60;;;;;;;17.74;44.90;100106.58;1670564;84;21284;-68
2021/06/03 06:58:50;;;;;;;8.15;2.22;;;;;;;17.78;44.91;100119.87;1674375;85;21559;-68
2021/06/03 07:01:17;;;;;;;2.65;2.45;;;;;;;17.82;44.06;100118.19;1680979;85;21133;-67
2021/06/03 07:03:43;;;;;;;3.17;2.58;;;;;;;17.88;44.92;100118.41;1672800;84;21496;-69
2021/06/03 07:06:10;;;;;;;5.65;2.42;;;;;;;17.95;43.28;100121.59;1668015;85;21025;-68
2021/06/03 07:08:36;;;;;;;7.83;2.22;;;;;;;17.96;43.25;100124.58;1669152;85;21143;-67
2021/06/03 07:11:05;;;;;;;3.62;2.10;;;;;;;17.96;43.52;100125.95;1673502;84;21019;-68
2021/06/03 07:13:31;;;;;;;4.80;2.70;;;;;;;18.01;44.40;100120.99;1642304;85;20968;-68
2021/06/03 07:15:58;;;;;;;3.12;2.52;;;;;;;18.07;44.52;100113.86;1670876;84;21512;-71
2021/06/03 07:18:25;;;;;;;13.08;2.83;;;;;;;18.13;43.67;100122.20;1670681;84;21091;-68
2021/06/03 07:20:51;;;;;;;9.25;2.47;;;;;;;18.18;44.02;100123.52;1671236;84;21807;-69
2021/06/03 07:23:19;;;;;;;7.53;2.95;;;;;;;18.23;44.27;100109.84;1670497;85;20999;-70
2021/06/03 07:25:48;;;;;;;8.13;2.22;;;;;;;18.32;42.77;100113.31;1670601;85;21034;-68
2021/06/03 07:28:14;;;;;;;3.92;2.45;;;;;;;18.38;43.11;100118.94;1670493;86;21054;-67
2021/06/03 07:30:41;;;;;;;5.90;2.00;;;;;;;18.45;42.46;100115.33;1671069;85;21078;-68
2021/06/03 07:33:07;;;;;;;11.48;2.60;;;;;;;18.51;41.68;100116.89;1653416;85;21500;-68
2021/06/03 07:35:34;;;;;;;10.08;3.55;;;;;;;18.56;41.06;100123.67;1644639;85;21572;-68
2021/06/03 07:38:01;;;;;;;6.72;2.42;;;;;;;18.58;40.35;100110.55;1670527;84;20995;-69
2021/06/03 07:40:31;;;;;;;7.92;2.37;;;;;;;18.59;40.73;100136.70;1670594;84;21050;-68
2021/06/03 07:42:58;;;;;;;10.05;2.25;;;;;;;18.63;40.95;100130.92;1670620;85;21035;-68
2021/06/03 07:45:27;;;;;;;9.95;2.75;;;;;;;18.69;40.35;100120.22;1670599;84;21158;-67
2021/06/03 07:47:56;;;;;;;7.25;2.33;;;;;;;18.71;40.32;100133.80;1670699;85;21093;-69
2021/06/03 07:50:22;;;;;;;2.90;2.60;;;;;;;18.74;40.22;100117.43;1670381;85;21039;-68
2021/06/03 07:52:49;;;;;;;5.10;2.75;;;;;;;18.76;40.79;100123.38;1678236;84;21047;-69
2021/06/03 07:55:18;;;;;;;5.92;2.25;;;;;;;18.82;41.44;100112.67;1664360;84;21751;-67
2021/06/03 07:57:47;;;;;;;11.60;1.90;;;;;;;18.91;40.76;100105.45;1704072;84;21274;-70
2021/06/03 08:00:16;;;;;;;2.40;1.90;;;;;;;19.00;39.40;100111.86;1704373;84;21608;-68
2021/06/03 08:02:44;;;;;;;4.95;2.67;;;;;;;19.06;40.54;100123.51;1687789;83;21595;-70
2021/06/03 08:05:16;;;;;;;3.08;2.42;;;;;;;19.14;39.69;100110.56;1685090;85;21004;-69
2021/06/03 08:07:42;;;;;;;1.90;1.67;;;;;;;19.18;39.85;100126.62;1685390;85;21528;-69
2021/06/03 08:10:12;;;;;;;3.62;2.35;;;;;;;19.23;40.13;100105.27;1690656;83;21149;-71
2021/06/03 08:12:39;;;;;;;9.65;2.60;;;;;;;19.25;39.97;100122.13;1700208;83;21004;-70
2021/06/03 08:15:09;;;;;;;17.12;2.40;;;;;;;19.25;39.06;100131.13;1682912;83;21453;-69
2021/06/03 08:17:36;;;;;;;3.27;2.22;;;;;;;19.22;39.07;100125.47;1709628;83;20982;-68
2021/06/03 08:20:06;;;;;;;4.70;3.02;;;;;;;19.21;39.13;100120.56;1682763;83;21042;-71
2021/06/03 08:22:32;;;;;;;10.65;2.50;;;;;;;19.26;39.48;100121.03;1719938;83;21065;-67
2021/06/03 08:25:00;;;;;;;5.17;2.33;;;;;;;19.36;38.84;100117.59;1719950;83;21532;-68
2021/06/03 08:27:27;;;;;;;4.70;2.20;;;;;;;19.42;39.11;100120.50;1720195;83;20943;-68
2021/06/03 08:29:53;;;;;;;4.50;2.50;;;;;;;19.51;38.76;100116.57;1702266;83;20975;-68
2021/06/03 08:32:20;;;;;;;12.28;2.58;;;;;;;19.57;38.50;100106.62;1667121;84;21102;-69
2021/06/03 08:34:47;;;;;;;11.10;2.05;;;;;;;19.62;38.19;100130.28;1667250;84;21370;-69
2021/06/03 08:37:15;;;;;;;7.95;2.22;;;;;;;19.65;38.01;100118.78;1691186;84;21488;-70
2021/06/03 08:39:41;;;;;;;10.55;2.50;;;;;;;19.66;37.21;100116.31;1705995;83;20974;-68
2021/06/03 08:42:12;;;;;;;12.07;3.37;;;;;;;19.62;36.97;100143.92;1719957;83;20966;-68
2021/06/03 08:44:39;;;;;;;5.12;1.85;;;;;;;19.70;37.07;100118.70;1720225;83;21078;-69
2021/06/03 08:47:08;;;;;;;3.67;2.37;;;;;;;19.82;37.37;100111.37;1719873;83;21090;-68
2021/06/03 08:49:36;;;;;;;5.85;1.92;;;;;;;19.92;36.67;100141.23;1682089;84;21035;-69
2021/06/03 08:52:04;;;;;;;7.83;2.25;;;;;;;19.93;36.60;100119.65;1691249;84;21079;-69
2021/06/03 08:54:33;;;;;;;5.70;2.62;;;;;;;19.94;37.05;100130.28;1705334;83;21022;-69
2021/06/03 08:57:00;;;;;;;3.08;2.33;;;;;;;19.88;36.94;100126.56;1715004;83;21008;-68
2021/06/03 08:59:27;;;;;;;7.37;2.22;;;;;;;19.85;36.79;100119.80;1689030;84;21226;-67
2021/06/03 09:01:53;;;;;;;6.10;2.20;;;;;;;19.87;36.60;100123.02;1667318;84;21046;-69
2021/06/03 09:04:20;;;;;;;2.47;2.02;;;;;;;19.93;36.75;100130.56;1688811;84;21165;-67
2021/06/03 09:06:46;;;;;;;4.12;2.27;;;;;;;20.04;35.77;100112.89;1671086;84;20950;-68
2021/06/03 09:09:14;;;;;;;13.00;2.85;;;;;;;20.10;35.67;100117.67;1666996;84;21049;-70
2021/06/03 09:11:40;;;;;;;13.45;2.52;;;;;;;20.13;34.80;100115.73;1660142;85;21786;-69
2021/06/03 09:14:14;;;;;;;4.10;2.08;;;;;;;20.15;33.73;100125.77;1661665;86;20963;-67
2021/06/03 09:16:38;;;;;;;2.45;2.25;;;;;;;20.15;33.17;100114.84;1651516;83;20997;-69
2021/06/03 09:19:13;;;;;;;8.68;1.80;;;;;;;20.22;34.34;100128.93;1694765;83;21468;-72
2021/06/03 09:21:47;;;;;;;6.22;2.55;;;;;;;20.28;34.61;100120.34;1690536;84;20966;-71
2021/06/03 09:24:16;;;;;;;;;;;;;;;20.28;35.47;100135.37;1670009;83;21058;-71
2021/06/03 09:26:54;;;;;;;4.22;2.08;;;;;;;20.27;35.56;100131.56;1695246;83;20242;-72
2021/06/03 09:29:32;;;;;;;1.70;1.47;;;;;;;20.23;35.63;100123.17;1719786;83;21051;-69
2021/06/03 09:32:11;;;;;;;4.67;2.00;;;;;;;20.19;35.37;100118.04;1685175;84;21090;-70
2021/06/03 09:34:39;;;;;;;2.90;1.75;;;;;;;20.16;35.17;100126.03;1695781;83;21117;-69
2021/06/03 09:37:08;;;;;;;3.75;2.00;;;;;;;20.19;35.21;100111.20;1691105;84;21256;-70
2021/06/03 09:39:41;;;;;;;5.35;1.85;;;;;;;20.25;35.47;100117.39;1690982;84;21034;-68
2021/06/03 09:42:20;;;;;;;6.05;2.62;;;;;;;20.27;35.44;100122.81;1690961;84;21063;-71
2021/06/03 09:44:53;;;;;;;4.05;2.10;;;;;;;20.33;35.75;100128.47;1693731;83;21039;-68
2021/06/03 09:47:21;;;;;;;12.28;2.83;;;;;;;20.42;35.79;100117.64;1720372;83;21532;-69
2021/06/03 09:49:57;;;;;;;4.12;2.10;;;;;;;20.52;35.64;100117.98;1719947;83;21989;-70
2021/06/03 09:52:31;;;;;;;4.62;2.08;;;;;;;20.63;35.23;100106.52;1688384;83;20991;-69
2021/06/03 09:55:00;;;;;;;2.33;2.12;;;;;;;20.70;35.56;100116.48;1694610;83;20975;-69
2021/06/03 09:57:34;;;;;;;18.62;2.55;;;;;;;20.71;35.25;100119.48;1695239;83;21042;-68
2021/06/03 10:00:07;;;;;;;5.45;2.22;;;;;;;20.72;34.44;100123.81;1719539;83;21059;-68
2021/06/03 10:02:36;;;;;;;3.45;2.02;;;;;;;20.72;34.95;100121.08;1669059;83;21808;-68
2021/06/03 10:05:14;;;;;;;14.00;1.87;;;;;;;20.66;35.41;100140.64;1714633;83;21091;-68
2021/06/03 10:08:00;;;;;;;6.67;1.87;;;;;;;20.68;35.76;100140.58;1666422;84;21063;-68
2021/06/03 10:10:31;;;;;;;4.03;1.72;;;;;;;20.67;35.71;100135.44;1692206;83;21016;-70
2021/06/03 10:13:00;;;;;;;4.17;2.22;;;;;;;20.69;36.01;100133.19;1662274;85;21014;-72
2021/06/03 10:15:33;;;;;;;2.90;1.92;;;;;;;20.59;36.07;100131.48;1682797;83;20915;-72
2021/06/03 10:18:07;;;;;;;3.05;1.92;;;;;;;20.54;36.40;100126.12;1720252;83;21059;-71
2021/06/03 10:20:52;;;;;;;11.15;2.52;;;;;;;20.52;36.27;100134.38;1718831;83;20978;-71
2021/06/03 10:23:25;;;;;;;16.37;2.83;;;;;;;20.49;36.81;100133.05;1719749;83;20994;-71
2021/06/03 10:26:03;;;;;;;4.10;2.50;;;;;;;20.43;36.50;100150.10;1678656;84;22215;-71
2021/06/03 10:28:30;;;;;;;5.78;2.20;;;;;;;20.42;36.26;100143.59;1719092;83;21541;-71
2021/06/03 10:31:08;;;;;;;5.00;2.30;;;;;;;20.39;36.26;100134.63;1719902;83;20979;-71
2021/06/03 10:33:31;;;;;;;13.20;2.70;;;;;;;20.41;36.50;100143.34;1719378;83;21007;-69
2021/06/03 10:36:03;;;;;;;12.50;2.77;;;;;;;20.56;36.80;100133.47;1705788;83;21028;-66
2021/06/03 10:38:29;;;;;;;3.10;2.08;;;;;;;20.72;36.25;100123.81;1693778;83;21022;-69
2021/06/03 10:40:59;;;;;;;5.40;2.37;;;;;;;20.93;36.16;100133.75;1721143;83;21536;-81
2021/06/03 10:43:31;;;;;;;2.83;2.05;;;;;;;21.09;35.00;100135.59;1696287;83;21603;-70
2021/06/03 10:45:58;;;;;;;6.22;2.02;;;;;;;21.09;35.00;100135.59;1719965;83;21013;-71
2021/06/03 10:48:24;;;;;;;7.22;2.10;;;;;;;21.04;34.30;100139.81;1667784;84;21047;-71
2021/06/03 10:50:53;;;;;;;3.85;2.15;;;;;;;20.96;33.99;100135.08;1667493;84;21015;-74
2021/06/03 10:53:24;;;;;;;4.97;1.70;;;;;;;20.96;33.99;100135.08;1667683;84;20985;-72
2021/06/03 10:55:54;;;;;;;4.97;2.85;;;;;;;20.98;34.45;100130.09;1667285;84;21031;-72
2021/06/03 10:58:37;;;;;;;6.85;2.30;;;;;;;21.07;34.63;100118.67;1691452;83;21035;-70
2021/06/03 11:01:10;;;;;;;2.65;2.00;;;;;;;21.12;34.83;100119.92;1691173;84;21003;-69
2021/06/03 11:03:48;;;;;;;14.50;2.42;;;;;;;21.09;35.51;100143.24;1691214;84;21026;-68
2021/06/03 11:06:20;;;;;;;2.70;1.95;;;;;;;20.97;36.42;100140.78;1691374;83;22678;-74
2021/06/03 11:09:01;;;;;;;4.97;2.62;;;;;;;20.83;36.24;100135.34;1693290;83;21500;-69
2021/06/03 11:11:42;;;;;;;5.00;1.90;;;;;;;20.69;36.30;100139.47;1690948;84;20958;-68
2021/06/03 11:14:18;;;;;;;5.28;2.25;;;;;;;20.58;36.25;100138.05;1690652;84;21490;-69
2021/06/03 11:16:51;;;;;;;8.18;3.17;;;;;;;20.58;36.91;100136.69;1697594;83;20947;-69
2021/06/03 11:19:24;;;;;;;2.92;2.52;;;;;;;20.75;36.79;100151.92;1720103;83;21125;-69
2021/06/03 11:21:53;;;;;;;;;;;;;;;20.75;36.79;100151.92;1722340;83;21132;-66
2021/06/03 11:24:35;;;;;;;3.42;2.37;;;;;;;20.78;36.75;100128.61;1705329;83;20471;-69
2021/06/03 11:27:08;;;;;;;6.97;2.60;;;;;;;20.72;36.82;100157.20;1711220;83;21020;-68
2021/06/03 11:29:53;;;;;;;5.75;1.75;;;;;;;20.55;36.67;100121.46;1656378;85;21083;-67
2021/06/03 11:32:34;;;;;;;4.62;1.50;;;;;;;20.71;36.55;100129.61;1680720;84;20978;-65
2021/06/03 11:35:04;;;;;;;2.80;2.10;;;;;;;20.71;36.55;100129.61;1704291;83;20975;-67
2021/06/03 11:37:43;;;;;;;7.62;1.72;;;;;;;20.93;36.13;100135.67;1709493;83;21496;-69